sensor_id;sensor_type;location;lat;lon;timestamp;P1;durP1;ratioP1;P2;durP2;ratioP2
75320;SDS011;68337;52.196;5.660;2023-03-30T00:01:24;7.88;;;5.40;;
75320;SDS011;68337;52.196;5.660;2023-03-30T00:03:49;10.57;;;5.78;;
75320;SDS011;68337;52.196;5.660;2023-03-30T00:06:19;6.40;;;5.40;;
75320;SDS011;68337;52.196;5.660;2023-03-30T00:08:47;8.73;;;5.55;;
75320;SDS011;68337;52.196;5.660;2023-03-30T00:11:21;9.20;;;5.38;;
75320;SDS011;68337;52.196;5.660;2023-03-30T00:13:47;9.13;;;5.40;;
75320;SDS011;68337;52.196;5.660;2023-03-30T00:16:16;9.63;;;5.45;;
75320;SDS011;68337;52.196;5.660;2023-03-30T00:18:43;9.18;;;5.65;;
75320;SDS011;68337;52.196;5.660;2023-03-30T00:21:09;10.93;;;5.60;;
75320;SDS011;68337;52.196;5.660;2023-03-30T00:23:35;11.00;;;5.90;;
75320;SDS011;68337;52.196;5.660;2023-03-30T00:26:02;8.50;;;5.00;;
75320;SDS011;68337;52.196;5.660;2023-03-30T00:28:28;10.57;;;5.47;;
75320;SDS011;68337;52.196;5.660;2023-03-30T00:30:55;7.53;;;5.43;;
75320;SDS011;68337;52.196;5.660;2023-03-30T00:33:21;7.93;;;5.32;;
75320;SDS011;68337;52.196;5.660;2023-03-30T00:36:05;8.52;;;5.32;;
75320;SDS011;68337;52.196;5.660;2023-03-30T00:38:31;8.40;;;5.18;;
75320;SDS011;68337;52.196;5.660;2023-03-30T00:40:58;8.63;;;5.57;;
75320;SDS011;68337;52.196;5.660;2023-03-30T00:43:26;14.90;;;6.07;;
75320;SDS011;68337;52.196;5.660;2023-03-30T00:45:54;11.00;;;5.30;;
75320;SDS011;68337;52.196;5.660;2023-03-30T00:48:42;9.80;;;5.43;;
75320;SDS011;68337;52.196;5.660;2023-03-30T00:51:09;9.55;;;5.28;;
75320;SDS011;68337;52.196;5.660;2023-03-30T00:53:38;7.00;;;5.75;;
75320;SDS011;68337;52.196;5.660;2023-03-30T00:56:06;7.78;;;5.05;;
75320;SDS011;68337;52.196;5.660;2023-03-30T00:58:34;10.57;;;5.60;;
75320;SDS011;68337;52.196;5.660;2023-03-30T01:01:02;8.43;;;5.53;;
75320;SDS011;68337;52.196;5.660;2023-03-30T01:03:31;7.95;;;4.93;;
75320;SDS011;68337;52.196;5.660;2023-03-30T01:06:02;6.95;;;4.85;;
75320;SDS011;68337;52.196;5.660;2023-03-30T01:08:31;10.73;;;5.07;;
75320;SDS011;68337;52.196;5.660;2023-03-30T01:10:58;7.45;;;5.03;;
75320;SDS011;68337;52.196;5.660;2023-03-30T01:13:28;11.13;;;4.90;;
75320;SDS011;68337;52.196;5.660;2023-03-30T01:29:21;5.10;;;3.47;;
75320;SDS011;68337;52.196;5.660;2023-03-30T01:37:58;6.57;;;3.75;;
75320;SDS011;68337;52.196;5.660;2023-03-30T01:40:28;5.30;;;2.63;;
75320;SDS011;68337;52.196;5.660;2023-03-30T01:42:57;3.58;;;3.20;;
75320;SDS011;68337;52.196;5.660;2023-03-30T01:50:59;6.35;;;2.75;;
75320;SDS011;68337;52.196;5.660;2023-03-30T01:56:27;4.45;;;2.85;;
75320;SDS011;68337;52.196;5.660;2023-03-30T02:01:33;5.07;;;3.40;;
75320;SDS011;68337;52.196;5.660;2023-03-30T02:04:02;7.18;;;3.30;;
75320;SDS011;68337;52.196;5.660;2023-03-30T02:06:33;3.83;;;2.97;;
75320;SDS011;68337;52.196;5.660;2023-03-30T02:09:11;4.80;;;3.25;;
75320;SDS011;68337;52.196;5.660;2023-03-30T02:11:41;3.53;;;2.85;;
75320;SDS011;68337;52.196;5.660;2023-03-30T02:14:10;8.10;;;3.30;;
75320;SDS011;68337;52.196;5.660;2023-03-30T02:16:46;5.88;;;3.25;;
75320;SDS011;68337;52.196;5.660;2023-03-30T02:19:13;5.20;;;3.40;;
75320;SDS011;68337;52.196;5.660;2023-03-30T02:21:41;5.03;;;3.13;;
75320;SDS011;68337;52.196;5.660;2023-03-30T02:24:15;4.70;;;3.08;;
75320;SDS011;68337;52.196;5.660;2023-03-30T02:26:44;7.82;;;3.47;;
75320;SDS011;68337;52.196;5.660;2023-03-30T02:29:13;4.40;;;2.80;;
75320;SDS011;68337;52.196;5.660;2023-03-30T02:31:40;7.82;;;2.92;;
75320;SDS011;68337;52.196;5.660;2023-03-30T02:36:39;6.30;;;3.03;;
75320;SDS011;68337;52.196;5.660;2023-03-30T02:45:21;8.10;;;3.50;;
75320;SDS011;68337;52.196;5.660;2023-03-30T02:51:17;4.90;;;3.30;;
75320;SDS011;68337;52.196;5.660;2023-03-30T02:56:50;6.18;;;3.67;;
75320;SDS011;68337;52.196;5.660;2023-03-30T02:59:33;5.85;;;3.42;;
75320;SDS011;68337;52.196;5.660;2023-03-30T03:02:16;7.05;;;3.25;;
75320;SDS011;68337;52.196;5.660;2023-03-30T03:04:46;5.30;;;2.97;;
75320;SDS011;68337;52.196;5.660;2023-03-30T03:07:14;5.75;;;2.30;;
75320;SDS011;68337;52.196;5.660;2023-03-30T03:09:40;6.15;;;3.05;;
75320;SDS011;68337;52.196;5.660;2023-03-30T03:12:06;5.75;;;2.53;;
75320;SDS011;68337;52.196;5.660;2023-03-30T03:14:32;5.40;;;2.40;;
75320;SDS011;68337;52.196;5.660;2023-03-30T03:16:58;4.90;;;2.20;;
75320;SDS011;68337;52.196;5.660;2023-03-30T03:19:23;5.68;;;2.70;;
75320;SDS011;68337;52.196;5.660;2023-03-30T03:21:49;5.40;;;2.60;;
75320;SDS011;68337;52.196;5.660;2023-03-30T03:24:15;6.00;;;2.42;;
75320;SDS011;68337;52.196;5.660;2023-03-30T03:26:44;6.32;;;2.22;;
75320;SDS011;68337;52.196;5.660;2023-03-30T03:29:10;5.90;;;2.13;;
75320;SDS011;68337;52.196;5.660;2023-03-30T03:31:36;5.50;;;2.78;;
75320;SDS011;68337;52.196;5.660;2023-03-30T03:34:02;3.33;;;2.05;;
75320;SDS011;68337;52.196;5.660;2023-03-30T03:36:27;5.45;;;2.67;;
75320;SDS011;68337;52.196;5.660;2023-03-30T03:38:54;4.55;;;2.55;;
75320;SDS011;68337;52.196;5.660;2023-03-30T03:41:20;4.05;;;2.22;;
75320;SDS011;68337;52.196;5.660;2023-03-30T03:43:46;4.55;;;2.53;;
75320;SDS011;68337;52.196;5.660;2023-03-30T03:46:12;6.57;;;2.30;;
75320;SDS011;68337;52.196;5.660;2023-03-30T03:48:38;4.97;;;2.30;;
75320;SDS011;68337;52.196;5.660;2023-03-30T03:51:04;2.65;;;1.80;;
75320;SDS011;68337;52.196;5.660;2023-03-30T03:53:30;8.23;;;2.33;;
75320;SDS011;68337;52.196;5.660;2023-03-30T03:55:56;3.33;;;1.55;;
75320;SDS011;68337;52.196;5.660;2023-03-30T03:58:22;6.20;;;2.00;;
75320;SDS011;68337;52.196;5.660;2023-03-30T04:00:48;7.57;;;1.77;;
75320;SDS011;68337;52.196;5.660;2023-03-30T04:03:14;2.50;;;1.52;;
75320;SDS011;68337;52.196;5.660;2023-03-30T04:05:40;4.40;;;2.22;;
75320;SDS011;68337;52.196;5.660;2023-03-30T04:08:06;4.90;;;2.13;;
75320;SDS011;68337;52.196;5.660;2023-03-30T04:10:35;6.18;;;2.15;;
75320;SDS011;68337;52.196;5.660;2023-03-30T04:13:02;3.63;;;2.30;;
75320;SDS011;68337;52.196;5.660;2023-03-30T04:15:28;7.53;;;2.03;;
75320;SDS011;68337;52.196;5.660;2023-03-30T04:17:54;5.82;;;1.50;;
75320;SDS011;68337;52.196;5.660;2023-03-30T04:20:25;4.85;;;1.88;;
75320;SDS011;68337;52.196;5.660;2023-03-30T04:22:52;6.80;;;1.70;;
75320;SDS011;68337;52.196;5.660;2023-03-30T04:25:19;3.85;;;1.60;;
75320;SDS011;68337;52.196;5.660;2023-03-30T04:27:47;4.55;;;2.13;;
75320;SDS011;68337;52.196;5.660;2023-03-30T04:30:15;4.80;;;2.28;;
75320;SDS011;68337;52.196;5.660;2023-03-30T04:32:42;7.38;;;1.88;;
75320;SDS011;68337;52.196;5.660;2023-03-30T04:35:09;6.35;;;1.73;;
75320;SDS011;68337;52.196;5.660;2023-03-30T04:37:35;5.38;;;1.70;;
75320;SDS011;68337;52.196;5.660;2023-03-30T04:40:02;6.18;;;2.20;;
75320;SDS011;68337;52.196;5.660;2023-03-30T04:42:33;5.13;;;2.15;;
75320;SDS011;68337;52.196;5.660;2023-03-30T04:45:07;6.05;;;1.73;;
75320;SDS011;68337;52.196;5.660;2023-03-30T04:47:36;5.25;;;1.50;;
75320;SDS011;68337;52.196;5.660;2023-03-30T04:50:02;3.65;;;1.63;;
75320;SDS011;68337;52.196;5.660;2023-03-30T04:52:28;6.68;;;1.63;;
75320;SDS011;68337;52.196;5.660;2023-03-30T04:54:54;6.30;;;2.28;;
75320;SDS011;68337;52.196;5.660;2023-03-30T04:57:20;6.28;;;2.10;;
75320;SDS011;68337;52.196;5.660;2023-03-30T04:59:46;5.25;;;2.30;;
75320;SDS011;68337;52.196;5.660;2023-03-30T05:02:12;11.90;;;2.15;;
75320;SDS011;68337;52.196;5.660;2023-03-30T05:04:40;7.43;;;2.28;;
75320;SDS011;68337;52.196;5.660;2023-03-30T05:07:06;6.82;;;2.63;;
75320;SDS011;68337;52.196;5.660;2023-03-30T05:09:33;9.18;;;2.20;;
75320;SDS011;68337;52.196;5.660;2023-03-30T05:11:59;6.30;;;1.95;;
75320;SDS011;68337;52.196;5.660;2023-03-30T05:14:24;11.93;;;2.38;;
75320;SDS011;68337;52.196;5.660;2023-03-30T05:16:50;11.18;;;2.20;;
75320;SDS011;68337;52.196;5.660;2023-03-30T05:19:16;6.65;;;2.05;;
75320;SDS011;68337;52.196;5.660;2023-03-30T05:21:44;6.28;;;2.45;;
75320;SDS011;68337;52.196;5.660;2023-03-30T05:24:13;5.60;;;2.35;;
75320;SDS011;68337;52.196;5.660;2023-03-30T05:26:38;9.52;;;2.30;;
75320;SDS011;68337;52.196;5.660;2023-03-30T05:29:04;4.57;;;2.42;;
75320;SDS011;68337;52.196;5.660;2023-03-30T05:31:30;8.93;;;2.38;;
75320;SDS011;68337;52.196;5.660;2023-03-30T05:33:56;10.38;;;3.13;;
75320;SDS011;68337;52.196;5.660;2023-03-30T05:36:22;6.43;;;2.70;;
75320;SDS011;68337;52.196;5.660;2023-03-30T05:38:47;13.10;;;3.30;;
75320;SDS011;68337;52.196;5.660;2023-03-30T05:41:13;8.32;;;2.90;;
75320;SDS011;68337;52.196;5.660;2023-03-30T05:43:41;9.05;;;2.85;;
75320;SDS011;68337;52.196;5.660;2023-03-30T05:46:06;10.30;;;3.72;;
75320;SDS011;68337;52.196;5.660;2023-03-30T05:48:32;8.70;;;3.40;;
75320;SDS011;68337;52.196;5.660;2023-03-30T05:50:58;6.72;;;2.85;;
75320;SDS011;68337;52.196;5.660;2023-03-30T05:53:24;11.10;;;3.15;;
75320;SDS011;68337;52.196;5.660;2023-03-30T05:55:50;7.57;;;3.20;;
75320;SDS011;68337;52.196;5.660;2023-03-30T05:58:15;8.85;;;3.78;;
75320;SDS011;68337;52.196;5.660;2023-03-30T06:00:42;9.75;;;2.80;;
75320;SDS011;68337;52.196;5.660;2023-03-30T06:03:08;8.07;;;4.00;;
75320;SDS011;68337;52.196;5.660;2023-03-30T06:05:38;11.57;;;4.03;;
75320;SDS011;68337;52.196;5.660;2023-03-30T06:08:06;11.30;;;3.38;;
75320;SDS011;68337;52.196;5.660;2023-03-30T06:10:32;8.98;;;3.58;;
75320;SDS011;68337;52.196;5.660;2023-03-30T06:12:59;9.00;;;3.40;;
75320;SDS011;68337;52.196;5.660;2023-03-30T06:15:25;7.28;;;2.80;;
75320;SDS011;68337;52.196;5.660;2023-03-30T06:17:51;11.52;;;2.83;;
75320;SDS011;68337;52.196;5.660;2023-03-30T06:20:17;11.20;;;3.38;;
75320;SDS011;68337;52.196;5.660;2023-03-30T06:22:45;11.73;;;2.80;;
75320;SDS011;68337;52.196;5.660;2023-03-30T06:25:12;13.70;;;3.60;;
75320;SDS011;68337;52.196;5.660;2023-03-30T06:27:38;8.75;;;3.13;;
75320;SDS011;68337;52.196;5.660;2023-03-30T06:30:03;14.48;;;3.72;;
75320;SDS011;68337;52.196;5.660;2023-03-30T06:32:30;10.38;;;3.22;;
75320;SDS011;68337;52.196;5.660;2023-03-30T06:34:55;15.38;;;3.58;;
75320;SDS011;68337;52.196;5.660;2023-03-30T06:37:21;12.63;;;3.38;;
75320;SDS011;68337;52.196;5.660;2023-03-30T06:39:47;16.42;;;3.60;;
75320;SDS011;68337;52.196;5.660;2023-03-30T06:42:13;19.83;;;3.70;;
75320;SDS011;68337;52.196;5.660;2023-03-30T06:44:38;16.98;;;4.05;;
75320;SDS011;68337;52.196;5.660;2023-03-30T06:47:04;13.63;;;3.13;;
75320;SDS011;68337;52.196;5.660;2023-03-30T06:49:30;14.43;;;4.00;;
75320;SDS011;68337;52.196;5.660;2023-03-30T06:51:56;16.45;;;3.65;;
75320;SDS011;68337;52.196;5.660;2023-03-30T06:54:22;14.60;;;3.58;;
75320;SDS011;68337;52.196;5.660;2023-03-30T06:56:49;11.18;;;3.35;;
75320;SDS011;68337;52.196;5.660;2023-03-30T06:59:16;12.90;;;3.50;;
75320;SDS011;68337;52.196;5.660;2023-03-30T07:01:42;18.88;;;3.70;;
75320;SDS011;68337;52.196;5.660;2023-03-30T07:04:08;11.68;;;2.67;;
75320;SDS011;68337;52.196;5.660;2023-03-30T07:06:34;15.65;;;3.50;;
75320;SDS011;68337;52.196;5.660;2023-03-30T07:09:01;17.75;;;3.40;;
75320;SDS011;68337;52.196;5.660;2023-03-30T07:11:29;16.08;;;3.75;;
75320;SDS011;68337;52.196;5.660;2023-03-30T07:13:56;22.23;;;3.92;;
75320;SDS011;68337;52.196;5.660;2023-03-30T07:16:22;15.20;;;3.70;;
75320;SDS011;68337;52.196;5.660;2023-03-30T07:18:49;19.85;;;3.70;;
75320;SDS011;68337;52.196;5.660;2023-03-30T07:21:16;18.95;;;3.60;;
75320;SDS011;68337;52.196;5.660;2023-03-30T07:23:42;14.50;;;2.97;;
75320;SDS011;68337;52.196;5.660;2023-03-30T07:26:08;15.27;;;3.47;;
75320;SDS011;68337;52.196;5.660;2023-03-30T07:28:35;17.90;;;3.67;;
75320;SDS011;68337;52.196;5.660;2023-03-30T07:31:04;19.90;;;4.43;;
75320;SDS011;68337;52.196;5.660;2023-03-30T07:33:31;22.83;;;4.53;;
75320;SDS011;68337;52.196;5.660;2023-03-30T07:35:57;19.33;;;3.80;;
75320;SDS011;68337;52.196;5.660;2023-03-30T07:38:23;26.08;;;4.35;;
75320;SDS011;68337;52.196;5.660;2023-03-30T07:40:48;19.17;;;3.72;;
75320;SDS011;68337;52.196;5.660;2023-03-30T07:43:14;15.25;;;3.95;;
75320;SDS011;68337;52.196;5.660;2023-03-30T07:45:40;22.20;;;5.32;;
75320;SDS011;68337;52.196;5.660;2023-03-30T07:48:06;15.25;;;3.63;;
75320;SDS011;68337;52.196;5.660;2023-03-30T07:50:31;18.17;;;4.60;;
75320;SDS011;68337;52.196;5.660;2023-03-30T07:52:57;15.13;;;3.75;;
75320;SDS011;68337;52.196;5.660;2023-03-30T07:55:23;17.27;;;3.95;;
75320;SDS011;68337;52.196;5.660;2023-03-30T07:57:49;20.23;;;4.63;;
75320;SDS011;68337;52.196;5.660;2023-03-30T08:00:15;21.42;;;3.65;;
75320;SDS011;68337;52.196;5.660;2023-03-30T08:02:41;16.63;;;4.18;;
75320;SDS011;68337;52.196;5.660;2023-03-30T08:05:08;18.17;;;3.75;;
75320;SDS011;68337;52.196;5.660;2023-03-30T08:07:36;16.67;;;3.75;;
75320;SDS011;68337;52.196;5.660;2023-03-30T08:10:02;16.27;;;3.85;;
75320;SDS011;68337;52.196;5.660;2023-03-30T08:12:29;13.10;;;3.88;;
75320;SDS011;68337;52.196;5.660;2023-03-30T08:14:54;29.33;;;4.38;;
75320;SDS011;68337;52.196;5.660;2023-03-30T08:17:20;13.95;;;4.07;;
75320;SDS011;68337;52.196;5.660;2023-03-30T08:19:46;13.63;;;3.60;;
75320;SDS011;68337;52.196;5.660;2023-03-30T08:22:13;13.63;;;3.40;;
75320;SDS011;68337;52.196;5.660;2023-03-30T08:24:38;17.35;;;4.13;;
75320;SDS011;68337;52.196;5.660;2023-03-30T08:27:05;17.13;;;3.88;;
75320;SDS011;68337;52.196;5.660;2023-03-30T08:29:31;17.60;;;3.70;;
75320;SDS011;68337;52.196;5.660;2023-03-30T08:31:57;13.70;;;3.47;;
75320;SDS011;68337;52.196;5.660;2023-03-30T08:34:24;21.58;;;5.25;;
75320;SDS011;68337;52.196;5.660;2023-03-30T08:36:50;18.40;;;4.32;;
75320;SDS011;68337;52.196;5.660;2023-03-30T08:39:16;28.50;;;4.45;;
75320;SDS011;68337;52.196;5.660;2023-03-30T08:44:36;23.02;;;4.22;;
75320;SDS011;68337;52.196;5.660;2023-03-30T08:47:11;20.88;;;4.28;;
75320;SDS011;68337;52.196;5.660;2023-03-30T08:52:32;20.50;;;4.40;;
75320;SDS011;68337;52.196;5.660;2023-03-30T08:54:59;22.60;;;5.25;;
75320;SDS011;68337;52.196;5.660;2023-03-30T09:02:45;18.92;;;3.90;;
75320;SDS011;68337;52.196;5.660;2023-03-30T09:05:32;17.65;;;4.35;;
75320;SDS011;68337;52.196;5.660;2023-03-30T09:10:42;22.55;;;5.15;;
75320;SDS011;68337;52.196;5.660;2023-03-30T09:13:16;22.92;;;4.30;;
75320;SDS011;68337;52.196;5.660;2023-03-30T09:15:56;19.92;;;4.10;;
75320;SDS011;68337;52.196;5.660;2023-03-30T09:18:30;17.20;;;4.07;;
75320;SDS011;68337;52.196;5.660;2023-03-30T09:20:59;19.25;;;4.63;;
75320;SDS011;68337;52.196;5.660;2023-03-30T09:23:30;21.73;;;4.70;;
75320;SDS011;68337;52.196;5.660;2023-03-30T09:28:49;23.80;;;5.22;;
75320;SDS011;68337;52.196;5.660;2023-03-30T09:31:42;17.25;;;3.88;;
75320;SDS011;68337;52.196;5.660;2023-03-30T09:34:18;14.90;;;3.35;;
75320;SDS011;68337;52.196;5.660;2023-03-30T09:37:04;12.55;;;3.22;;
75320;SDS011;68337;52.196;5.660;2023-03-30T09:39:34;16.13;;;3.78;;
75320;SDS011;68337;52.196;5.660;2023-03-30T09:44:42;15.50;;;3.53;;
75320;SDS011;68337;52.196;5.660;2023-03-30T09:47:21;19.42;;;3.97;;
75320;SDS011;68337;52.196;5.660;2023-03-30T09:49:47;13.27;;;4.38;;
75320;SDS011;68337;52.196;5.660;2023-03-30T09:52:19;12.60;;;2.92;;
75320;SDS011;68337;52.196;5.660;2023-03-30T09:54:47;18.55;;;4.07;;
75320;SDS011;68337;52.196;5.660;2023-03-30T09:57:23;11.35;;;3.08;;
75320;SDS011;68337;52.196;5.660;2023-03-30T09:59:54;16.90;;;4.70;;
75320;SDS011;68337;52.196;5.660;2023-03-30T10:02:22;20.40;;;4.28;;
75320;SDS011;68337;52.196;5.660;2023-03-30T10:09:50;17.73;;;3.55;;
75320;SDS011;68337;52.196;5.660;2023-03-30T10:12:16;20.88;;;4.70;;
75320;SDS011;68337;52.196;5.660;2023-03-30T10:14:42;24.48;;;4.95;;
75320;SDS011;68337;52.196;5.660;2023-03-30T10:17:15;22.20;;;4.45;;
75320;SDS011;68337;52.196;5.660;2023-03-30T10:19:44;19.27;;;4.57;;
75320;SDS011;68337;52.196;5.660;2023-03-30T10:22:14;22.98;;;4.22;;
75320;SDS011;68337;52.196;5.660;2023-03-30T10:24:51;17.67;;;4.43;;
75320;SDS011;68337;52.196;5.660;2023-03-30T10:27:25;15.25;;;4.07;;
75320;SDS011;68337;52.196;5.660;2023-03-30T10:30:07;24.38;;;4.93;;
75320;SDS011;68337;52.196;5.660;2023-03-30T10:32:34;23.48;;;4.50;;
75320;SDS011;68337;52.196;5.660;2023-03-30T10:35:00;21.05;;;4.25;;
75320;SDS011;68337;52.196;5.660;2023-03-30T10:37:37;18.63;;;4.15;;
75320;SDS011;68337;52.196;5.660;2023-03-30T10:42:52;23.23;;;4.57;;
75320;SDS011;68337;52.196;5.660;2023-03-30T10:45:25;26.98;;;5.53;;
75320;SDS011;68337;52.196;5.660;2023-03-30T10:48:18;27.17;;;5.05;;
75320;SDS011;68337;52.196;5.660;2023-03-30T10:50:50;25.38;;;4.82;;
75320;SDS011;68337;52.196;5.660;2023-03-30T10:56:36;18.25;;;4.22;;
75320;SDS011;68337;52.196;5.660;2023-03-30T11:04:08;20.50;;;4.68;;
75320;SDS011;68337;52.196;5.660;2023-03-30T11:06:41;25.80;;;4.80;;
75320;SDS011;68337;52.196;5.660;2023-03-30T11:09:18;27.00;;;5.40;;
75320;SDS011;68337;52.196;5.660;2023-03-30T11:11:54;27.13;;;5.10;;
75320;SDS011;68337;52.196;5.660;2023-03-30T11:14:52;24.27;;;5.57;;
75320;SDS011;68337;52.196;5.660;2023-03-30T11:17:33;26.20;;;4.80;;
75320;SDS011;68337;52.196;5.660;2023-03-30T11:23:17;30.98;;;4.57;;
75320;SDS011;68337;52.196;5.660;2023-03-30T11:26:05;27.17;;;5.03;;
75320;SDS011;68337;52.196;5.660;2023-03-30T11:34:13;18.23;;;4.53;;
75320;SDS011;68337;52.196;5.660;2023-03-30T11:36:50;31.58;;;5.13;;
75320;SDS011;68337;52.196;5.660;2023-03-30T11:39:44;29.80;;;5.43;;
75320;SDS011;68337;52.196;5.660;2023-03-30T11:42:17;26.17;;;4.90;;
75320;SDS011;68337;52.196;5.660;2023-03-30T11:44:49;22.00;;;4.85;;
75320;SDS011;68337;52.196;5.660;2023-03-30T11:53:19;25.73;;;4.38;;
75320;SDS011;68337;52.196;5.660;2023-03-30T12:03:45;21.88;;;4.28;;
75320;SDS011;68337;52.196;5.660;2023-03-30T12:11:51;19.67;;;4.15;;
75320;SDS011;68337;52.196;5.660;2023-03-30T12:14:39;20.42;;;3.72;;
75320;SDS011;68337;52.196;5.660;2023-03-30T12:20:23;22.02;;;4.03;;
75320;SDS011;68337;52.196;5.660;2023-03-30T12:32:17;23.30;;;3.83;;
75320;SDS011;68337;52.196;5.660;2023-03-30T12:34:34;25.77;;;3.55;;
75320;SDS011;68337;52.196;5.660;2023-03-30T12:37:05;14.55;;;3.38;;
75320;SDS011;68337;52.196;5.660;2023-03-30T12:39:47;21.23;;;4.53;;
75320;SDS011;68337;52.196;5.660;2023-03-30T12:44:58;19.83;;;4.07;;
75320;SDS011;68337;52.196;5.660;2023-03-30T12:50:17;21.13;;;5.05;;
75320;SDS011;68337;52.196;5.660;2023-03-30T13:03:53;16.58;;;4.32;;
75320;SDS011;68337;52.196;5.660;2023-03-30T13:06:25;24.42;;;4.75;;
75320;SDS011;68337;52.196;5.660;2023-03-30T13:11:43;21.70;;;4.65;;
75320;SDS011;68337;52.196;5.660;2023-03-30T13:14:59;22.63;;;4.65;;
75320;SDS011;68337;52.196;5.660;2023-03-30T13:27:31;24.02;;;4.75;;
75320;SDS011;68337;52.196;5.660;2023-03-30T13:46:07;27.27;;;5.05;;
75320;SDS011;68337;52.196;5.660;2023-03-30T13:51:51;26.05;;;4.65;;
75320;SDS011;68337;52.196;5.660;2023-03-30T13:54:25;29.48;;;5.30;;
75320;SDS011;68337;52.196;5.660;2023-03-30T13:56:59;26.70;;;4.47;;
75320;SDS011;68337;52.196;5.660;2023-03-30T13:59:41;30.42;;;5.43;;
75320;SDS011;68337;52.196;5.660;2023-03-30T14:02:14;26.65;;;4.80;;
75320;SDS011;68337;52.196;5.660;2023-03-30T14:04:41;26.80;;;4.63;;
75320;SDS011;68337;52.196;5.660;2023-03-30T14:07:14;25.23;;;4.53;;
75320;SDS011;68337;52.196;5.660;2023-03-30T14:10:10;23.70;;;5.22;;
75320;SDS011;68337;52.196;5.660;2023-03-30T14:12:41;27.98;;;6.25;;
75320;SDS011;68337;52.196;5.660;2023-03-30T14:17:57;17.38;;;4.18;;
75320;SDS011;68337;52.196;5.660;2023-03-30T14:20:37;19.25;;;4.25;;
75320;SDS011;68337;52.196;5.660;2023-03-30T14:23:27;20.52;;;4.80;;
75320;SDS011;68337;52.196;5.660;2023-03-30T14:26:25;25.25;;;4.80;;
75320;SDS011;68337;52.196;5.660;2023-03-30T14:28:54;20.50;;;5.30;;
75320;SDS011;68337;52.196;5.660;2023-03-30T14:31:21;24.58;;;4.80;;
75320;SDS011;68337;52.196;5.660;2023-03-30T14:33:47;19.08;;;4.65;;
75320;SDS011;68337;52.196;5.660;2023-03-30T14:36:14;22.58;;;4.57;;
75320;SDS011;68337;52.196;5.660;2023-03-30T14:38:45;25.30;;;5.25;;
75320;SDS011;68337;52.196;5.660;2023-03-30T14:41:23;23.48;;;4.88;;
75320;SDS011;68337;52.196;5.660;2023-03-30T14:43:58;27.15;;;5.55;;
75320;SDS011;68337;52.196;5.660;2023-03-30T14:46:42;18.35;;;4.68;;
75320;SDS011;68337;52.196;5.660;2023-03-30T14:49:20;27.13;;;5.40;;
75320;SDS011;68337;52.196;5.660;2023-03-30T14:51:49;19.13;;;4.05;;
75320;SDS011;68337;52.196;5.660;2023-03-30T14:54:20;19.15;;;3.95;;
75320;SDS011;68337;52.196;5.660;2023-03-30T14:56:55;18.50;;;3.92;;
75320;SDS011;68337;52.196;5.660;2023-03-30T14:59:26;18.92;;;4.03;;
75320;SDS011;68337;52.196;5.660;2023-03-30T15:01:53;26.65;;;4.55;;
75320;SDS011;68337;52.196;5.660;2023-03-30T15:04:21;18.90;;;3.70;;
75320;SDS011;68337;52.196;5.660;2023-03-30T15:06:49;19.80;;;4.05;;
75320;SDS011;68337;52.196;5.660;2023-03-30T15:09:19;14.68;;;3.42;;
75320;SDS011;68337;52.196;5.660;2023-03-30T15:11:49;19.58;;;4.18;;
75320;SDS011;68337;52.196;5.660;2023-03-30T15:14:19;25.73;;;4.10;;
75320;SDS011;68337;52.196;5.660;2023-03-30T15:16:47;16.30;;;3.58;;
75320;SDS011;68337;52.196;5.660;2023-03-30T15:21:49;19.92;;;3.90;;
75320;SDS011;68337;52.196;5.660;2023-03-30T15:24:19;17.15;;;4.43;;
75320;SDS011;68337;52.196;5.660;2023-03-30T15:26:53;18.15;;;4.00;;
75320;SDS011;68337;52.196;5.660;2023-03-30T15:29:21;17.98;;;3.28;;
75320;SDS011;68337;52.196;5.660;2023-03-30T15:31:57;19.48;;;4.13;;
75320;SDS011;68337;52.196;5.660;2023-03-30T15:34:31;21.20;;;3.75;;
75320;SDS011;68337;52.196;5.660;2023-03-30T15:36:57;20.67;;;4.15;;
75320;SDS011;68337;52.196;5.660;2023-03-30T15:39:24;19.98;;;3.65;;
75320;SDS011;68337;52.196;5.660;2023-03-30T15:41:59;19.77;;;4.53;;
75320;SDS011;68337;52.196;5.660;2023-03-30T15:44:25;22.15;;;4.25;;
75320;SDS011;68337;52.196;5.660;2023-03-30T15:46:55;20.85;;;3.88;;
75320;SDS011;68337;52.196;5.660;2023-03-30T15:49:23;15.35;;;3.42;;
75320;SDS011;68337;52.196;5.660;2023-03-30T15:51:57;17.05;;;3.67;;
75320;SDS011;68337;52.196;5.660;2023-03-30T15:54:29;16.75;;;3.67;;
75320;SDS011;68337;52.196;5.660;2023-03-30T15:57:00;18.90;;;4.47;;
75320;SDS011;68337;52.196;5.660;2023-03-30T15:59:53;21.60;;;4.78;;
75320;SDS011;68337;52.196;5.660;2023-03-30T16:02:37;16.70;;;4.45;;
75320;SDS011;68337;52.196;5.660;2023-03-30T16:05:06;17.35;;;4.13;;
75320;SDS011;68337;52.196;5.660;2023-03-30T16:07:39;16.67;;;3.92;;
75320;SDS011;68337;52.196;5.660;2023-03-30T16:10:11;20.42;;;3.58;;
75320;SDS011;68337;52.196;5.660;2023-03-30T16:12:40;15.70;;;3.63;;
75320;SDS011;68337;52.196;5.660;2023-03-30T16:15:15;16.73;;;3.55;;
75320;SDS011;68337;52.196;5.660;2023-03-30T16:17:42;23.17;;;4.28;;
75320;SDS011;68337;52.196;5.660;2023-03-30T16:20:13;18.33;;;4.13;;
75320;SDS011;68337;52.196;5.660;2023-03-30T16:22:43;13.95;;;3.83;;
75320;SDS011;68337;52.196;5.660;2023-03-30T16:25:11;16.95;;;3.97;;
75320;SDS011;68337;52.196;5.660;2023-03-30T16:27:37;20.73;;;4.28;;
75320;SDS011;68337;52.196;5.660;2023-03-30T16:33:00;12.98;;;3.17;;
75320;SDS011;68337;52.196;5.660;2023-03-30T16:35:26;14.02;;;3.10;;
75320;SDS011;68337;52.196;5.660;2023-03-30T16:37:52;15.50;;;2.92;;
75320;SDS011;68337;52.196;5.660;2023-03-30T16:40:34;14.57;;;3.30;;
75320;SDS011;68337;52.196;5.660;2023-03-30T16:43:03;19.33;;;3.75;;
75320;SDS011;68337;52.196;5.660;2023-03-30T16:45:31;15.45;;;3.88;;
75320;SDS011;68337;52.196;5.660;2023-03-30T16:47:58;20.40;;;4.13;;
75320;SDS011;68337;52.196;5.660;2023-03-30T16:50:36;14.73;;;4.55;;
75320;SDS011;68337;52.196;5.660;2023-03-30T16:53:10;16.25;;;3.53;;
75320;SDS011;68337;52.196;5.660;2023-03-30T16:55:39;23.30;;;4.40;;
75320;SDS011;68337;52.196;5.660;2023-03-30T16:58:06;18.42;;;3.60;;
75320;SDS011;68337;52.196;5.660;2023-03-30T17:00:38;18.50;;;3.47;;
75320;SDS011;68337;52.196;5.660;2023-03-30T17:03:06;14.60;;;3.28;;
75320;SDS011;68337;52.196;5.660;2023-03-30T17:05:33;11.63;;;2.97;;
75320;SDS011;68337;52.196;5.660;2023-03-30T17:08:03;15.65;;;3.33;;
75320;SDS011;68337;52.196;5.660;2023-03-30T17:10:42;11.07;;;3.13;;
75320;SDS011;68337;52.196;5.660;2023-03-30T17:13:07;18.33;;;3.25;;
75320;SDS011;68337;52.196;5.660;2023-03-30T17:15:34;17.90;;;3.60;;
75320;SDS011;68337;52.196;5.660;2023-03-30T17:18:02;17.63;;;3.47;;
75320;SDS011;68337;52.196;5.660;2023-03-30T17:20:36;13.30;;;3.45;;
75320;SDS011;68337;52.196;5.660;2023-03-30T17:23:04;20.33;;;3.30;;
75320;SDS011;68337;52.196;5.660;2023-03-30T17:25:32;18.55;;;3.55;;
75320;SDS011;68337;52.196;5.660;2023-03-30T17:28:00;14.48;;;3.50;;
75320;SDS011;68337;52.196;5.660;2023-03-30T17:30:31;21.15;;;4.20;;
75320;SDS011;68337;52.196;5.660;2023-03-30T17:33:04;11.20;;;3.05;;
75320;SDS011;68337;52.196;5.660;2023-03-30T17:35:35;12.85;;;3.45;;
75320;SDS011;68337;52.196;5.660;2023-03-30T17:38:02;12.77;;;3.00;;
75320;SDS011;68337;52.196;5.660;2023-03-30T17:40:29;18.38;;;3.13;;
75320;SDS011;68337;52.196;5.660;2023-03-30T17:42:56;14.75;;;3.00;;
75320;SDS011;68337;52.196;5.660;2023-03-30T17:45:24;19.02;;;3.78;;
75320;SDS011;68337;52.196;5.660;2023-03-30T17:47:53;14.75;;;3.22;;
75320;SDS011;68337;52.196;5.660;2023-03-30T17:52:47;15.57;;;4.43;;
75320;SDS011;68337;52.196;5.660;2023-03-30T17:55:14;19.63;;;4.15;;